JAL518 RJCC-RJTT
Flight info
| Callsign | JAL518 |
|---|---|
| Flight time | N/A |
| Altitude | 40000 |
| Route | TOBBY Y10 GODIN |
| Aircraft | B763/H-SDE3FGHIM3RWXY/LB1 |
Departure
| Time | N/A |
|---|---|
| Airport | New Chitose Airport (RJCC) |
Arrival
| Time | 2026-05-01 09:25 |
|---|---|
| Airport | Tokyo Haneda International Airport (RJTT) |
| Time | Latitude | Longitude | Altitude | Speed | Heading |
|---|---|---|---|---|---|
| 2026-05-01 08:29 | 39.82018 | 141.25974 | 39515 ft | 359 kts | 194° |
| 2026-05-01 08:30 | 39.79615 | 141.25186 | 39515 ft | 360 kts | 195° |
| 2026-05-01 08:30 | 39.74756 | 141.23593 | 39516 ft | 358 kts | 195° |
| 2026-05-01 08:31 | 39.69924 | 141.22014 | 39515 ft | 358 kts | 194° |
| 2026-05-01 08:31 | 39.65101 | 141.20438 | 39510 ft | 359 kts | 195° |
| 2026-05-01 08:32 | 39.60262 | 141.18861 | 39511 ft | 359 kts | 195° |
| 2026-05-01 08:32 | 39.55430 | 141.17287 | 39512 ft | 357 kts | 194° |
| 2026-05-01 08:33 | 39.50625 | 141.15724 | 39519 ft | 358 kts | 195° |
| 2026-05-01 08:33 | 39.45774 | 141.14149 | 39515 ft | 359 kts | 195° |
| 2026-05-01 08:34 | 39.40919 | 141.12624 | 39511 ft | 358 kts | 193° |
| 2026-05-01 08:34 | 39.36044 | 141.11154 | 39500 ft | 358 kts | 194° |
| 2026-05-01 08:35 | 39.31202 | 141.09692 | 39499 ft | 358 kts | 193° |
| 2026-05-01 08:35 | 39.26359 | 141.08232 | 39492 ft | 358 kts | 194° |
| 2026-05-01 08:36 | 39.21499 | 141.06769 | 39484 ft | 358 kts | 193° |
| 2026-05-01 08:36 | 39.16607 | 141.05299 | 39476 ft | 359 kts | 194° |
| 2026-05-01 08:37 | 39.11756 | 141.03844 | 39468 ft | 358 kts | 194° |
| 2026-05-01 08:37 | 39.06921 | 141.02394 | 39463 ft | 357 kts | 194° |
| 2026-05-01 08:38 | 39.02063 | 141.00941 | 39457 ft | 358 kts | 194° |
| 2026-05-01 08:38 | 38.97205 | 140.99487 | 39445 ft | 358 kts | 194° |
| 2026-05-01 08:39 | 38.92359 | 140.98042 | 39435 ft | 358 kts | 193° |
| 2026-05-01 08:39 | 38.87486 | 140.96590 | 39483 ft | 360 kts | 193° |
| 2026-05-01 08:40 | 38.80195 | 140.94423 | 39475 ft | 357 kts | 194° |
| 2026-05-01 08:40 | 38.75371 | 140.92987 | 39455 ft | 359 kts | 193° |
| 2026-05-01 08:41 | 38.70486 | 140.91539 | 39458 ft | 359 kts | 193° |
| 2026-05-01 08:41 | 38.65644 | 140.90106 | 39466 ft | 357 kts | 194° |
| 2026-05-01 08:42 | 38.60773 | 140.88666 | 39451 ft | 357 kts | 193° |
| 2026-05-01 08:42 | 38.55933 | 140.87234 | 39467 ft | 359 kts | 193° |
| 2026-05-01 08:43 | 38.51062 | 140.85800 | 39443 ft | 358 kts | 194° |
| 2026-05-01 08:43 | 38.46203 | 140.84369 | 39447 ft | 359 kts | 194° |
| 2026-05-01 08:44 | 38.41307 | 140.82928 | 39443 ft | 357 kts | 194° |
| 2026-05-01 08:44 | 38.36447 | 140.81502 | 39463 ft | 360 kts | 194° |
| 2026-05-01 08:45 | 38.31572 | 140.80070 | 39427 ft | 359 kts | 193° |
| 2026-05-01 08:45 | 38.26692 | 140.78644 | 39440 ft | 359 kts | 194° |
| 2026-05-01 08:46 | 38.21836 | 140.77223 | 39443 ft | 358 kts | 194° |
| 2026-05-01 08:46 | 38.16996 | 140.75809 | 39422 ft | 357 kts | 194° |
| 2026-05-01 08:47 | 38.12110 | 140.74383 | 39455 ft | 361 kts | 194° |
| 2026-05-01 08:47 | 38.07259 | 140.72971 | 39405 ft | 356 kts | 193° |
| 2026-05-01 08:48 | 38.02374 | 140.71549 | 39394 ft | 359 kts | 193° |
| 2026-05-01 08:48 | 37.97514 | 140.70138 | 39422 ft | 358 kts | 194° |
| 2026-05-01 08:49 | 37.92665 | 140.68732 | 39418 ft | 358 kts | 194° |
| 2026-05-01 08:49 | 37.90213 | 140.68021 | 39317 ft | 358 kts | 194° |
| 2026-05-01 08:49 | 37.87806 | 140.67323 | 39039 ft | 355 kts | 193° |
| 2026-05-01 08:50 | 37.85390 | 140.66623 | 38669 ft | 350 kts | 193° |
| 2026-05-01 08:50 | 37.83024 | 140.65941 | 38236 ft | 345 kts | 194° |
| 2026-05-01 08:50 | 37.80692 | 140.65268 | 37820 ft | 344 kts | 194° |
| 2026-05-01 08:50 | 37.78353 | 140.64589 | 37455 ft | 343 kts | 193° |
| 2026-05-01 08:51 | 37.75999 | 140.63911 | 37192 ft | 343 kts | 194° |
| 2026-05-01 08:51 | 37.73682 | 140.63243 | 36934 ft | 346 kts | 193° |
| 2026-05-01 08:51 | 37.71293 | 140.62553 | 36655 ft | 348 kts | 194° |
| 2026-05-01 08:51 | 37.68929 | 140.61871 | 36379 ft | 348 kts | 193° |
| 2026-05-01 08:52 | 37.66574 | 140.61192 | 36099 ft | 348 kts | 194° |
| 2026-05-01 08:52 | 37.64214 | 140.60513 | 35824 ft | 347 kts | 193° |
| 2026-05-01 08:52 | 37.61875 | 140.59839 | 35552 ft | 346 kts | 194° |
| 2026-05-01 08:52 | 37.59508 | 140.59161 | 35269 ft | 347 kts | 194° |
| 2026-05-01 08:53 | 37.57147 | 140.58481 | 34984 ft | 348 kts | 194° |
| 2026-05-01 08:53 | 37.54786 | 140.57803 | 34631 ft | 350 kts | 193° |
| 2026-05-01 08:53 | 37.52409 | 140.57118 | 34174 ft | 354 kts | 193° |
| 2026-05-01 08:53 | 37.49988 | 140.56427 | 33695 ft | 355 kts | 194° |
| 2026-05-01 08:54 | 37.47597 | 140.55740 | 33208 ft | 354 kts | 193° |
| 2026-05-01 08:54 | 37.45192 | 140.55051 | 32676 ft | 349 kts | 193° |
| 2026-05-01 08:54 | 37.42833 | 140.54376 | 32206 ft | 347 kts | 193° |
| 2026-05-01 08:54 | 37.40470 | 140.53700 | 31712 ft | 356 kts | 194° |
| 2026-05-01 08:55 | 37.38020 | 140.53000 | 31163 ft | 366 kts | 193° |
| 2026-05-01 08:55 | 37.35523 | 140.52289 | 30557 ft | 370 kts | 193° |
| 2026-05-01 08:55 | 37.33018 | 140.51570 | 29950 ft | 371 kts | 193° |
| 2026-05-01 08:55 | 37.30505 | 140.50856 | 29444 ft | 370 kts | 193° |
| 2026-05-01 08:56 | 37.27991 | 140.50139 | 28999 ft | 372 kts | 193° |
| 2026-05-01 08:56 | 37.25469 | 140.49419 | 28582 ft | 375 kts | 193° |
| 2026-05-01 08:56 | 37.22896 | 140.48688 | 28127 ft | 376 kts | 193° |
| 2026-05-01 08:56 | 37.20341 | 140.47960 | 27675 ft | 373 kts | 193° |
| 2026-05-01 08:57 | 37.17842 | 140.47250 | 27267 ft | 368 kts | 194° |
| 2026-05-01 08:57 | 37.15341 | 140.46539 | 26821 ft | 366 kts | 193° |
| 2026-05-01 08:57 | 37.12840 | 140.45833 | 26395 ft | 367 kts | 194° |
| 2026-05-01 08:57 | 37.10383 | 140.45134 | 25962 ft | 366 kts | 193° |
| 2026-05-01 08:58 | 37.07900 | 140.44429 | 25535 ft | 363 kts | 194° |
| 2026-05-01 08:58 | 37.05432 | 140.43732 | 25097 ft | 362 kts | 194° |
| 2026-05-01 08:58 | 37.02964 | 140.43031 | 24677 ft | 362 kts | 194° |
| 2026-05-01 08:58 | 37.00517 | 140.42340 | 24266 ft | 357 kts | 194° |
| 2026-05-01 08:59 | 36.98118 | 140.41663 | 23842 ft | 356 kts | 194° |
| 2026-05-01 08:59 | 36.95679 | 140.40971 | 23438 ft | 357 kts | 195° |
| 2026-05-01 08:59 | 36.93272 | 140.40292 | 23019 ft | 353 kts | 194° |
| 2026-05-01 08:59 | 36.90864 | 140.39612 | 22608 ft | 353 kts | 194° |
| 2026-05-01 09:00 | 36.88452 | 140.38936 | 22190 ft | 351 kts | 195° |
| 2026-05-01 09:00 | 36.86085 | 140.38266 | 21790 ft | 349 kts | 195° |
| 2026-05-01 09:00 | 36.83706 | 140.37598 | 21383 ft | 347 kts | 195° |
| 2026-05-01 09:00 | 36.81350 | 140.36934 | 20977 ft | 347 kts | 194° |
| 2026-05-01 09:01 | 36.79004 | 140.36275 | 20572 ft | 345 kts | 194° |
| 2026-05-01 09:01 | 36.76691 | 140.35622 | 20158 ft | 339 kts | 195° |
| 2026-05-01 09:01 | 36.74374 | 140.34979 | 19772 ft | 337 kts | 193° |
| 2026-05-01 09:01 | 36.72050 | 140.34503 | 19379 ft | 340 kts | 191° |
| 2026-05-01 09:02 | 36.69706 | 140.34030 | 18981 ft | 340 kts | 192° |
| 2026-05-01 09:02 | 36.67392 | 140.33571 | 18610 ft | 334 kts | 192° |
| 2026-05-01 09:02 | 36.65091 | 140.33107 | 18192 ft | 334 kts | 191° |
| 2026-05-01 09:02 | 36.62779 | 140.32643 | 17814 ft | 332 kts | 192° |
| 2026-05-01 09:03 | 36.60515 | 140.32190 | 17438 ft | 329 kts | 192° |
| 2026-05-01 09:03 | 36.58241 | 140.31735 | 17066 ft | 329 kts | 191° |
| 2026-05-01 09:03 | 36.55970 | 140.31279 | 16685 ft | 330 kts | 192° |
| 2026-05-01 09:03 | 36.53683 | 140.30818 | 16299 ft | 331 kts | 191° |
| 2026-05-01 09:04 | 36.51404 | 140.30364 | 15907 ft | 329 kts | 191° |
| 2026-05-01 09:04 | 36.49171 | 140.29916 | 15515 ft | 326 kts | 192° |
| 2026-05-01 09:04 | 36.46914 | 140.29466 | 15130 ft | 329 kts | 192° |
| 2026-05-01 09:04 | 36.44636 | 140.28920 | 14735 ft | 330 kts | 198° |
| 2026-05-01 09:05 | 36.42591 | 140.27719 | 14358 ft | 327 kts | 214° |
| 2026-05-01 09:05 | 36.40932 | 140.25771 | 13950 ft | 331 kts | 229° |
| 2026-05-01 09:05 | 36.39830 | 140.23276 | 13529 ft | 338 kts | 246° |
| 2026-05-01 09:05 | 36.39223 | 140.20419 | 13101 ft | 342 kts | 250° |
| 2026-05-01 09:06 | 36.38649 | 140.17603 | 12693 ft | 336 kts | 250° |
| 2026-05-01 09:06 | 36.38085 | 140.14769 | 12255 ft | 338 kts | 250° |
| 2026-05-01 09:06 | 36.37519 | 140.11942 | 11833 ft | 338 kts | 251° |
| 2026-05-01 09:06 | 36.36966 | 140.09122 | 11429 ft | 333 kts | 251° |
| 2026-05-01 09:07 | 36.36402 | 140.06364 | 11435 ft | 333 kts | 249° |
| 2026-05-01 09:07 | 36.35423 | 140.03735 | 11463 ft | 334 kts | 232° |
| 2026-05-01 09:07 | 36.33865 | 140.01623 | 11330 ft | 332 kts | 218° |
| 2026-05-01 09:07 | 36.31888 | 140.00154 | 10713 ft | 330 kts | 202° |
| 2026-05-01 09:08 | 36.29675 | 139.99521 | 10177 ft | 326 kts | 185° |
| 2026-05-01 09:08 | 36.27493 | 139.99509 | 10082 ft | 297 kts | 185° |
| 2026-05-01 09:08 | 36.25516 | 139.99429 | 10008 ft | 270 kts | 186° |
| 2026-05-01 09:08 | 36.23710 | 139.99342 | 9906 ft | 251 kts | 186° |
| 2026-05-01 09:09 | 36.21985 | 139.99243 | 9757 ft | 250 kts | 186° |
| 2026-05-01 09:09 | 36.20233 | 139.99135 | 9626 ft | 252 kts | 187° |
| 2026-05-01 09:09 | 36.18485 | 139.99025 | 9489 ft | 249 kts | 186° |
| 2026-05-01 09:09 | 36.16731 | 139.98912 | 9349 ft | 247 kts | 187° |
| 2026-05-01 09:10 | 36.15031 | 139.98802 | 9223 ft | 247 kts | 187° |
| 2026-05-01 09:10 | 36.13315 | 139.98689 | 9107 ft | 246 kts | 187° |
| 2026-05-01 09:10 | 36.11609 | 139.98578 | 8969 ft | 245 kts | 186° |
| 2026-05-01 09:10 | 36.09887 | 139.98463 | 8847 ft | 246 kts | 187° |
| 2026-05-01 09:11 | 36.08165 | 139.98349 | 8724 ft | 247 kts | 187° |
| 2026-05-01 09:11 | 36.06451 | 139.98451 | 8585 ft | 252 kts | 171° |
| 2026-05-01 09:11 | 36.04758 | 139.99162 | 8415 ft | 253 kts | 166° |
| 2026-05-01 09:11 | 36.03155 | 139.99866 | 8384 ft | 234 kts | 167° |
| 2026-05-01 09:12 | 36.01637 | 140.00536 | 8108 ft | 234 kts | 167° |
| 2026-05-01 09:12 | 36.00122 | 140.01205 | 7751 ft | 231 kts | 166° |
| 2026-05-01 09:12 | 35.98617 | 140.01880 | 7412 ft | 229 kts | 167° |
| 2026-05-01 09:12 | 35.97129 | 140.02550 | 7087 ft | 225 kts | 167° |
| 2026-05-01 09:13 | 35.95674 | 140.03203 | 6774 ft | 222 kts | 167° |
| 2026-05-01 09:13 | 35.94220 | 140.03856 | 6468 ft | 221 kts | 166° |
| 2026-05-01 09:13 | 35.92766 | 140.04511 | 6177 ft | 221 kts | 167° |
| 2026-05-01 09:13 | 35.91301 | 140.05171 | 5896 ft | 221 kts | 167° |
| 2026-05-01 09:14 | 35.89867 | 140.05817 | 5614 ft | 220 kts | 166° |
| 2026-05-01 09:14 | 35.88424 | 140.06467 | 5352 ft | 217 kts | 166° |
| 2026-05-01 09:14 | 35.87024 | 140.07098 | 5109 ft | 214 kts | 167° |
| 2026-05-01 09:14 | 35.85627 | 140.07727 | 4869 ft | 210 kts | 167° |
| 2026-05-01 09:15 | 35.84280 | 140.08334 | 4638 ft | 205 kts | 167° |
| 2026-05-01 09:15 | 35.82944 | 140.08934 | 4395 ft | 201 kts | 167° |
| 2026-05-01 09:15 | 35.81636 | 140.09512 | 4158 ft | 196 kts | 172° |
| 2026-05-01 09:15 | 35.80363 | 140.09491 | 4033 ft | 178 kts | 201° |
| 2026-05-01 09:16 | 35.79196 | 140.08958 | 4006 ft | 177 kts | 202° |
| 2026-05-01 09:16 | 35.78023 | 140.08431 | 4011 ft | 178 kts | 202° |
| 2026-05-01 09:16 | 35.76886 | 140.07948 | 4000 ft | 172 kts | 200° |
| 2026-05-01 09:17 | 35.74686 | 140.06972 | 4009 ft | 168 kts | 213° |
| 2026-05-01 09:17 | 35.73817 | 140.06012 | 4021 ft | 169 kts | 223° |
| 2026-05-01 09:17 | 35.72181 | 140.04048 | 4020 ft | 156 kts | 222° |
| 2026-05-01 09:18 | 35.71428 | 140.03145 | 4001 ft | 146 kts | 222° |
| 2026-05-01 09:18 | 35.70005 | 140.01430 | 4010 ft | 146 kts | 221° |
| 2026-05-01 09:19 | 35.68507 | 139.99623 | 3870 ft | 153 kts | 223° |
| 2026-05-01 09:19 | 35.67752 | 139.98708 | 3682 ft | 152 kts | 221° |
| 2026-05-01 09:19 | 35.67001 | 139.97800 | 3497 ft | 151 kts | 223° |
| 2026-05-01 09:20 | 35.65513 | 139.95998 | 3118 ft | 150 kts | 223° |
| 2026-05-01 09:20 | 35.64022 | 139.94189 | 2718 ft | 151 kts | 221° |
| 2026-05-01 09:21 | 35.62519 | 139.92371 | 2331 ft | 152 kts | 222° |
| 2026-05-01 09:21 | 35.61795 | 139.91495 | 2150 ft | 140 kts | 223° |
| 2026-05-01 09:21 | 35.60513 | 139.89938 | 1751 ft | 123 kts | 222° |
| 2026-05-01 09:22 | 35.59363 | 139.88550 | 1454 ft | 115 kts | 221° |
| 2026-05-01 09:22 | 35.58198 | 139.87143 | 1158 ft | 118 kts | 221° |
| 2026-05-01 09:23 | 35.57650 | 139.86395 | 970 ft | 119 kts | 227° |
| 2026-05-01 09:23 | 35.56494 | 139.84929 | 655 ft | 121 kts | 217° |
| 2026-05-01 09:24 | 35.55242 | 139.83546 | 378 ft | 122 kts | 218° |
| 2026-05-01 09:24 | 35.54614 | 139.82844 | 235 ft | 123 kts | 220° |
| 2026-05-01 09:24 | 35.53327 | 139.81387 | 12 ft | 110 kts | 220° |
| 2026-05-01 09:25 | 35.52808 | 139.80806 | 12 ft | 26 kts | 229° |
| 2026-05-01 09:25 | 35.52692 | 139.80502 | 12 ft | 0 kts | 247° |
| 2026-05-01 09:27 | 35.52690 | 139.80501 | 12 ft | 2 kts | 247° |
| 2026-05-01 09:28 | 35.52681 | 139.80438 | 12 ft | 11 kts | 276° |
| 2026-05-01 09:28 | 35.52729 | 139.80339 | 12 ft | 16 kts | 318° |
| 2026-05-01 09:28 | 35.52821 | 139.80368 | 12 ft | 15 kts | 43° |
| 2026-05-01 09:28 | 35.52909 | 139.80467 | 12 ft | 18 kts | 43° |
| 2026-05-01 09:29 | 35.53125 | 139.80438 | 12 ft | 19 kts | 330° |
| 2026-05-01 09:29 | 35.53249 | 139.80350 | 12 ft | 21 kts | 330° |
| 2026-05-01 09:30 | 35.53537 | 139.80145 | 12 ft | 26 kts | 330° |
| 2026-05-01 09:30 | 35.53680 | 139.80043 | 12 ft | 13 kts | 329° |
| 2026-05-01 09:30 | 35.53677 | 139.79895 | 15 ft | 9 kts | 241° |
| 2026-05-01 09:31 | 35.53644 | 139.79825 | 17 ft | 9 kts | 239° |
| 2026-05-01 09:31 | 35.53601 | 139.79736 | 18 ft | 15 kts | 240° |
| 2026-05-01 09:31 | 35.53450 | 139.79419 | 19 ft | 23 kts | 239° |
| 2026-05-01 09:32 | 35.53375 | 139.79260 | 22 ft | 16 kts | 242° |
| 2026-05-01 09:32 | 35.53408 | 139.79128 | 28 ft | 7 kts | 327° |
| 2026-05-01 09:32 | 35.53456 | 139.79091 | 30 ft | 8 kts | 330° |
| 2026-05-01 09:33 | 35.53513 | 139.79051 | 33 ft | 10 kts | 329° |
| 2026-05-01 09:33 | 35.53591 | 139.78995 | 33 ft | 16 kts | 329° |
| 2026-05-01 09:33 | 35.53914 | 139.78766 | 30 ft | 34 kts | 330° |
| 2026-05-01 09:34 | 35.54120 | 139.78619 | 37 ft | 34 kts | 329° |
| 2026-05-01 09:34 | 35.54298 | 139.78494 | 30 ft | 28 kts | 329° |
| 2026-05-01 09:34 | 35.54594 | 139.78285 | 11 ft | 14 kts | 330° |
| 2026-05-01 09:35 | 35.54651 | 139.78276 | 12 ft | 6 kts | 24° |
| 2026-05-01 09:35 | 35.54692 | 139.78339 | 24 ft | 8 kts | 60° |
| 2026-05-01 09:35 | 35.54719 | 139.78397 | 34 ft | 4 kts | 60° |
| 2026-05-01 09:36 | 35.54722 | 139.78401 | 34 ft | 0 kts | 60° |